CYOW/YOW METAR and TAF weather

Enter ICAO airport designator
Station Type Date Time Source
CYOW METAR 2022/07/01 01:00 UTC NOAA

CYOW 010100Z 16006KT 15SM FEW070 SCT150 BKN210 BKN250 20/13 A2997 RMK AC2AC2CI2CI1 CI TR SLP153 DENSITY ALT 1000FT


Station Type Date Time Source
CYOW Decoded METAR 2022/07/01 01:00 UTC NOAA

Ottawa Int'L. Ont., Canada (CYOW) 45-19N 075-40W 114M
Jun 30, 2022 - 09:00 PM EDT / 2022.07.01 0100 UTC
Wind: from the SSE (160 degrees) at 7 MPH (6 KT):0
Visibility: 15 mile(s):0
Sky conditions: mostly cloudy
Temperature: 68 F (20 C)
Dew Point: 55 F (13 C)
Relative Humidity: 64%
Pressure (altimeter): 29.97 in. Hg (1014 hPa)
ob: CYOW 010100Z 16006KT 15SM FEW070 SCT150 BKN210 BKN250 20/13 A2997 RMK AC2AC2CI2CI1 CI TR SLP153 DENSITY ALT 1000FT
cycle: 1

Station Type Date Time Source
CYOW TAF 2022/06/30 21:42 UTC NOAA

TAF CYOW 302040Z 3021/0118 19007KT P6SM FEW110
FM010000 18010KT P6SM BKN160
BECMG 0107/0109 22008KT
RMK NXT FCST BY 010000Z

Example: see airport list